createdAt,value
2022-08-05T00:00:26.664Z,15.75
2022-08-05T00:03:00.266Z,15.57
2022-08-05T00:06:04.661Z,15.42
2022-08-05T00:08:34.967Z,15.53
2022-08-05T00:11:20.726Z,15.48
2022-08-05T00:13:59.103Z,15.31
2022-08-05T00:16:35.749Z,15.30
2022-08-05T00:19:06.762Z,15.28
2022-08-05T00:21:38.212Z,14.91
2022-08-05T00:24:24.060Z,14.98
2022-08-05T00:26:54.573Z,15.31
2022-08-05T00:29:25.505Z,15.24
2022-08-05T00:32:12.142Z,15.18
2022-08-05T00:35:03.513Z,14.81
2022-08-05T00:37:52.964Z,15.12
2022-08-05T00:40:29.506Z,15.04
2022-08-05T00:43:02.002Z,15.04
2022-08-05T00:45:38.501Z,14.95
2022-08-05T00:48:14.722Z,15.02
2022-08-05T00:50:48.088Z,14.88
2022-08-05T00:54:00.841Z,14.96
2022-08-05T00:56:12.627Z,14.94
2022-08-05T00:58:46.940Z,14.52
2022-08-05T01:01:42.257Z,14.76
2022-08-05T01:04:14.030Z,14.75
2022-08-05T01:06:48.621Z,14.77
2022-08-05T01:09:23.268Z,14.76
2022-08-05T01:12:17.852Z,14.64
2022-08-05T01:14:58.541Z,14.59
2022-08-05T01:17:44.808Z,14.64
2022-08-05T01:20:36.094Z,14.53
2022-08-05T01:23:23.699Z,14.37
2022-08-05T01:26:31.506Z,14.54
2022-08-05T01:29:06.765Z,14.50
2022-08-05T01:31:45.201Z,14.46
2022-08-05T01:34:21.114Z,14.50
2022-08-05T01:36:57.561Z,14.42
2022-08-05T01:39:46.441Z,14.48
2022-08-05T01:42:20.997Z,14.45
2022-08-05T01:44:54.149Z,14.44
2022-08-05T01:47:39.641Z,14.43
2022-08-05T01:50:17.370Z,14.41
2022-08-05T01:52:50.326Z,14.45
2022-08-05T01:55:24.175Z,14.44
2022-08-05T01:58:10.897Z,14.24
2022-08-05T02:00:51.576Z,14.36
2022-08-05T02:03:31.829Z,14.34
2022-08-05T02:06:33.894Z,14.34
2022-08-05T02:08:58.457Z,14.38
2022-08-05T02:11:34.229Z,14.36
2022-08-05T02:14:12.910Z,14.35
2022-08-05T02:16:53.093Z,14.31
2022-08-05T02:19:34.492Z,14.17
2022-08-05T02:22:25.391Z,14.26
2022-08-05T02:25:04.851Z,14.24
2022-08-05T02:27:59.128Z,14.29
2022-08-05T02:30:38.899Z,14.28
2022-08-05T02:33:24.572Z,14.17
2022-08-05T02:36:09.623Z,14.16
2022-08-05T02:38:52.799Z,14.07
2022-08-05T02:41:28.986Z,13.94
2022-08-05T02:44:13.923Z,13.84
2022-08-05T02:46:58.444Z,14.09
2022-08-05T02:49:37.705Z,13.83
2022-08-05T02:52:13.692Z,14.02
2022-08-05T02:55:01.725Z,13.98
2022-08-05T02:58:09.288Z,13.66
2022-08-05T03:00:27.006Z,13.88
2022-08-05T03:02:58.599Z,13.80
2022-08-05T03:06:53.645Z,13.58
2022-08-05T03:08:29.733Z,13.84
2022-08-05T03:11:53.326Z,13.83
2022-08-05T03:13:51.781Z,13.82
2022-08-05T03:16:32.485Z,13.83
2022-08-05T03:19:12.853Z,13.67
2022-08-05T03:21:56.378Z,13.75
2022-08-05T03:24:30.809Z,13.69
2022-08-05T03:27:01.182Z,13.76
2022-08-05T03:29:45.894Z,13.78
2022-08-05T03:32:20.658Z,13.66
2022-08-05T03:34:51.607Z,13.76
2022-08-05T03:37:22.992Z,13.81
2022-08-05T03:40:03.987Z,13.75
2022-08-05T03:42:51.565Z,13.79
2022-08-05T03:45:23.524Z,13.77
2022-08-05T03:47:56.935Z,13.59
2022-08-05T03:50:26.800Z,13.66
2022-08-05T03:55:00.456Z,13.74
2022-08-05T03:56:17.170Z,13.73
2022-08-05T03:59:00.365Z,13.73
2022-08-05T04:01:32.899Z,13.66
2022-08-05T04:04:09.737Z,13.74
2022-08-05T04:06:47.377Z,13.76
2022-08-05T04:09:26.018Z,13.70
2022-08-05T04:11:56.969Z,13.73
2022-08-05T04:14:30.370Z,13.57
2022-08-05T04:17:02.875Z,13.69
2022-08-05T04:19:32.302Z,13.75
2022-08-05T04:22:08.358Z,13.74
2022-08-05T04:24:43.980Z,13.71
2022-08-05T04:27:15.194Z,13.69
2022-08-05T04:29:44.688Z,13.44
2022-08-05T04:32:15.657Z,13.70
2022-08-05T04:35:00.347Z,13.69
2022-08-05T04:38:02.724Z,13.63
2022-08-05T04:40:20.338Z,13.61
2022-08-05T04:42:49.548Z,13.64
2022-08-05T04:45:22.926Z,13.54
2022-08-05T04:48:06.758Z,13.42
2022-08-05T04:51:01.970Z,13.51
2022-08-05T04:53:35.400Z,13.58
2022-08-05T04:56:33.381Z,13.52
2022-08-05T04:58:56.758Z,13.54
2022-08-05T05:02:05.654Z,13.68
2022-08-05T05:04:15.402Z,13.66
2022-08-05T05:06:52.018Z,13.75
2022-08-05T05:09:27.013Z,13.80
2022-08-05T05:12:00.358Z,13.84
2022-08-05T05:14:32.407Z,13.75
2022-08-05T05:17:03.271Z,13.94
2022-08-05T05:19:39.626Z,13.99
2022-08-05T05:22:24.472Z,13.94
2022-08-05T05:24:57.067Z,14.03
2022-08-05T05:27:45.888Z,13.94
2022-08-05T05:30:29.173Z,14.00
2022-08-05T05:33:00.368Z,13.91
2022-08-05T05:35:31.611Z,13.96
2022-08-05T05:38:05.650Z,13.91
2022-08-05T05:40:38.849Z,14.13
2022-08-05T05:43:14.404Z,14.19
2022-08-05T05:45:48.237Z,13.89
2022-08-05T05:48:17.756Z,14.15
2022-08-05T05:50:56.785Z,14.17
2022-08-05T05:53:26.014Z,14.19
2022-08-05T05:56:00.709Z,14.18
2022-08-05T05:58:32.503Z,14.20
2022-08-05T06:01:12.918Z,14.18
2022-08-05T06:04:00.452Z,14.23
2022-08-05T06:06:33.035Z,14.18
2022-08-05T06:09:03.805Z,14.16
2022-08-05T06:11:33.543Z,14.23
2022-08-05T06:14:04.649Z,14.21
2022-08-05T06:16:37.267Z,14.28
2022-08-05T06:19:08.078Z,14.25
2022-08-05T06:21:42.941Z,14.29
2022-08-05T06:24:25.772Z,14.36
2022-08-05T06:26:56.664Z,14.40
2022-08-05T06:29:49.338Z,14.33
2022-08-05T06:32:25.797Z,14.45
2022-08-05T06:34:56.643Z,14.50
2022-08-05T06:37:56.586Z,14.33
2022-08-05T06:40:18.131Z,14.58
2022-08-05T06:42:52.861Z,14.52
2022-08-05T06:45:44.730Z,14.69
2022-08-05T06:48:47.289Z,14.74
2022-08-05T06:51:09.394Z,14.36
2022-08-05T06:53:39.824Z,14.30
2022-08-05T06:56:11.707Z,14.65
2022-08-05T06:58:57.878Z,14.61
2022-08-05T07:01:40.464Z,14.51
2022-08-05T07:04:10.943Z,14.75
2022-08-05T07:06:50.459Z,14.87
2022-08-05T07:09:20.040Z,14.98
2022-08-05T07:11:55.913Z,14.99
2022-08-05T07:14:49.166Z,15.14
2022-08-05T07:18:08.755Z,15.40
2022-08-05T07:20:37.040Z,15.45
2022-08-05T07:23:08.254Z,15.54
2022-08-05T07:25:54.818Z,15.51
2022-08-05T07:28:26.493Z,15.69
2022-08-05T07:30:55.999Z,15.82
2022-08-05T07:33:35.247Z,15.94
2022-08-05T07:36:21.157Z,16.02
2022-08-05T07:38:54.876Z,16.22
2022-08-05T07:42:14.720Z,16.31
2022-08-05T07:44:18.991Z,16.28
2022-08-05T07:46:50.375Z,16.41
2022-08-05T07:49:21.558Z,16.47
2022-08-05T07:51:55.049Z,16.55
2022-08-05T07:54:31.065Z,16.46
2022-08-05T07:57:17.834Z,16.72
2022-08-05T07:59:50.904Z,16.67
2022-08-05T08:02:26.593Z,16.82
2022-08-05T08:05:02.924Z,16.82
2022-08-05T08:07:39.470Z,16.86
2022-08-05T08:10:22.859Z,17.10
2022-08-05T08:12:55.466Z,17.16
2022-08-05T08:15:37.177Z,17.29
2022-08-05T08:18:20.764Z,17.32
2022-08-05T08:21:02.289Z,17.49
2022-08-05T08:24:01.239Z,17.56
2022-08-05T08:26:27.017Z,17.74
2022-08-05T08:29:21.900Z,18.01
2022-08-05T08:31:50.988Z,18.11
2022-08-05T08:34:30.285Z,18.22
2022-08-05T08:37:05.143Z,18.23
2022-08-05T08:39:37.780Z,18.26
2022-08-05T08:42:33.677Z,18.47
2022-08-05T08:45:24.265Z,18.58
2022-08-05T08:48:10.641Z,18.91
2022-08-05T08:51:22.806Z,19.20
2022-08-05T08:53:44.264Z,19.36
2022-08-05T08:56:15.009Z,19.63
2022-08-05T08:58:47.881Z,19.64
2022-08-05T09:01:19.718Z,19.99
2022-08-05T09:03:55.671Z,20.26
2022-08-05T09:06:29.586Z,20.43
2022-08-05T09:09:02.341Z,20.56
2022-08-05T09:11:52.824Z,20.83
2022-08-05T09:14:57.545Z,21.10
2022-08-05T09:17:41.124Z,20.97
2022-08-05T09:20:08.349Z,21.21
2022-08-05T09:23:19.176Z,21.36
2022-08-05T09:26:06.777Z,21.73
2022-08-05T09:28:40.840Z,21.69
2022-08-05T09:31:23.011Z,21.40
2022-08-05T09:34:05.515Z,21.16
2022-08-05T09:36:55.859Z,20.75
2022-08-05T09:39:45.008Z,20.01
2022-08-05T09:42:23.091Z,19.80
2022-08-05T09:44:56.121Z,19.84
2022-08-05T09:47:48.112Z,20.75
2022-08-05T09:50:43.567Z,21.27
2022-08-05T09:53:17.148Z,21.67
2022-08-05T09:56:03.770Z,21.96
2022-08-05T09:58:35.853Z,22.02
2022-08-05T10:01:31.443Z,22.10
2022-08-05T10:04:10.519Z,21.75
2022-08-05T10:06:54.809Z,21.38
2022-08-05T10:09:29.917Z,21.20
2022-08-05T10:12:30.562Z,21.02
2022-08-05T10:15:22.378Z,20.86
2022-08-05T10:18:14.384Z,20.38
2022-08-05T10:20:49.231Z,20.23
2022-08-05T10:23:34.300Z,20.00
2022-08-05T10:26:14.397Z,19.96
2022-08-05T10:28:46.351Z,19.89
2022-08-05T10:32:53.841Z,19.48
2022-08-05T10:34:09.655Z,19.73
2022-08-05T10:36:41.406Z,19.75
2022-08-05T10:39:24.385Z,19.53
2022-08-05T10:42:02.309Z,18.85
2022-08-05T10:44:34.011Z,19.11
2022-08-05T10:47:26.497Z,18.90
2022-08-05T10:50:32.299Z,18.93
2022-08-05T10:53:00.014Z,18.58
2022-08-05T10:55:32.935Z,18.56
2022-08-05T10:58:20.743Z,18.47
2022-08-05T11:00:55.363Z,18.31
2022-08-05T11:03:35.012Z,18.08
2022-08-05T11:06:16.155Z,18.10
2022-08-05T11:09:18.859Z,17.96
2022-08-05T11:12:03.232Z,17.88
2022-08-05T11:15:01.018Z,17.96
2022-08-05T11:17:57.948Z,17.88
2022-08-05T11:20:44.701Z,18.63
2022-08-05T11:24:04.560Z,19.07
2022-08-05T11:26:43.282Z,19.55
2022-08-05T11:29:40.496Z,20.19
2022-08-05T11:32:27.515Z,20.61
2022-08-05T11:34:58.641Z,21.30
2022-08-05T11:38:30.195Z,22.08
2022-08-05T11:41:14.181Z,22.44
2022-08-05T11:44:07.387Z,21.88
2022-08-05T11:47:09.911Z,22.26
2022-08-05T11:49:34.017Z,21.82
2022-08-05T11:52:11.219Z,21.79
2022-08-05T11:54:43.629Z,22.06
2022-08-05T11:57:30.706Z,22.34
2022-08-05T12:00:28.841Z,22.49
2022-08-05T12:02:58.744Z,22.41
2022-08-05T12:05:32.376Z,22.94
2022-08-05T12:08:11.531Z,23.76
2022-08-05T12:10:46.303Z,24.50
2022-08-05T12:13:28.042Z,25.38
2022-08-05T12:16:14.484Z,25.99
2022-08-05T12:18:52.261Z,26.43
2022-08-05T12:21:26.935Z,26.84
2022-08-05T12:24:07.264Z,27.24
2022-08-05T12:26:43.822Z,27.57
2022-08-05T12:29:17.908Z,27.61
2022-08-05T12:31:55.327Z,27.87
2022-08-05T12:34:28.548Z,27.69
2022-08-05T12:37:00.148Z,27.43
2022-08-05T12:39:37.210Z,27.00
2022-08-05T12:42:18.201Z,26.14
2022-08-05T12:44:50.001Z,25.38
2022-08-05T12:47:30.690Z,24.29
2022-08-05T12:50:04.815Z,23.84
2022-08-05T12:52:38.655Z,23.07
2022-08-05T12:55:25.345Z,22.41
2022-08-05T12:58:49.001Z,22.29
2022-08-05T13:02:04.055Z,22.02
2022-08-05T13:03:38.947Z,21.92
2022-08-05T13:06:19.889Z,22.08
2022-08-05T13:08:51.545Z,22.12
2022-08-05T13:11:59.760Z,22.38
2022-08-05T13:14:36.079Z,22.74
2022-08-05T13:17:11.451Z,23.28
2022-08-05T13:19:51.874Z,23.88
2022-08-05T13:22:28.010Z,24.38
2022-08-05T13:25:05.426Z,24.61
2022-08-05T13:27:39.112Z,24.49
2022-08-05T13:30:33.987Z,24.18
2022-08-05T13:33:03.546Z,24.25
2022-08-05T13:35:47.021Z,24.54
2022-08-05T13:38:36.071Z,25.19
2022-08-05T13:41:05.928Z,25.91
2022-08-05T13:43:44.304Z,26.07
2022-08-05T13:46:50.888Z,25.89
2022-08-05T13:49:17.157Z,25.51
2022-08-05T13:51:47.103Z,25.70
2022-08-05T13:54:21.171Z,25.10
2022-08-05T13:56:54.744Z,24.72
2022-08-05T13:59:26.976Z,24.86
2022-08-05T14:02:00.788Z,25.39
2022-08-05T14:04:51.394Z,25.77
2022-08-05T14:07:25.850Z,26.64
2022-08-05T14:10:18.798Z,26.95
2022-08-05T14:12:49.125Z,27.14
2022-08-05T14:16:07.706Z,27.16
2022-08-05T14:18:17.459Z,26.89
2022-08-05T14:20:48.551Z,26.85
2022-08-05T14:23:24.783Z,27.03
2022-08-05T14:25:57.872Z,27.06
2022-08-05T14:28:28.968Z,26.92
2022-08-05T14:31:00.614Z,27.12
2022-08-05T14:33:59.095Z,27.30
2022-08-05T14:36:22.790Z,26.84
2022-08-05T14:38:53.303Z,26.20
2022-08-05T14:41:23.425Z,25.64
2022-08-05T14:44:02.272Z,25.56
2022-08-05T14:46:39.271Z,25.02
2022-08-05T14:49:10.823Z,24.91
2022-08-05T14:51:42.432Z,24.87
2022-08-05T14:54:28.682Z,24.79
2022-08-05T14:56:59.817Z,24.56
2022-08-05T14:59:35.403Z,24.79
2022-08-05T15:02:15.844Z,25.18
2022-08-05T15:04:47.626Z,25.52
2022-08-05T15:08:06.347Z,25.60
2022-08-05T15:10:09.789Z,25.17
2022-08-05T15:13:00.428Z,25.05
2022-08-05T15:15:54.007Z,24.81
2022-08-05T15:18:18.956Z,24.26
2022-08-05T15:20:49.807Z,23.87
2022-08-05T15:23:20.880Z,23.87
2022-08-05T15:25:52.335Z,24.22
2022-08-05T15:28:27.178Z,24.63
2022-08-05T15:30:58.110Z,24.91
2022-08-05T15:34:05.481Z,24.99
2022-08-05T15:36:25.689Z,24.80
2022-08-05T15:41:02.131Z,24.83
2022-08-05T15:41:55.824Z,24.81
2022-08-05T15:44:26.318Z,25.27
2022-08-05T15:46:57.101Z,25.60
2022-08-05T15:49:53.570Z,25.73
2022-08-05T15:52:51.751Z,25.65
2022-08-05T15:55:10.293Z,25.94
2022-08-05T15:57:46.059Z,26.22
2022-08-05T16:00:26.244Z,26.22
2022-08-05T16:03:08.490Z,25.79
2022-08-05T16:05:38.965Z,25.49
2022-08-05T16:08:09.968Z,25.00
2022-08-05T16:10:39.266Z,24.82
2022-08-05T16:13:11.393Z,24.72
2022-08-05T16:15:40.706Z,24.81
2022-08-05T16:18:12.538Z,24.89
2022-08-05T16:20:43.790Z,24.46
2022-08-05T16:23:16.808Z,24.22
2022-08-05T16:25:46.156Z,24.34
2022-08-05T16:28:18.127Z,23.98
2022-08-05T16:30:47.513Z,24.09
2022-08-05T16:33:20.914Z,24.20
2022-08-05T16:35:52.991Z,24.33
2022-08-05T16:38:28.125Z,24.11
2022-08-05T16:42:12.198Z,23.94
2022-08-05T16:43:56.154Z,23.54
2022-08-05T16:46:25.907Z,23.26
2022-08-05T16:48:57.172Z,23.23
2022-08-05T16:51:31.083Z,23.00
2022-08-05T16:54:24.849Z,22.99
2022-08-05T16:57:00.089Z,23.20
2022-08-05T16:59:30.943Z,23.20
2022-08-05T17:02:03.655Z,23.10
2022-08-05T17:04:36.095Z,23.15
2022-08-05T17:07:12.601Z,23.29
2022-08-05T17:09:58.496Z,22.88
2022-08-05T17:12:51.539Z,23.24
2022-08-05T17:15:21.491Z,23.29
2022-08-05T17:17:56.379Z,23.38
2022-08-05T17:20:32.345Z,23.44
2022-08-05T17:23:01.899Z,23.26
2022-08-05T17:25:40.030Z,23.41
2022-08-05T17:28:10.507Z,23.33
2022-08-05T17:30:50.719Z,23.47
2022-08-05T17:33:23.093Z,23.49
2022-08-05T17:36:08.346Z,23.27
2022-08-05T17:38:40.084Z,23.53
2022-08-05T17:41:22.788Z,23.49
2022-08-05T17:44:00.631Z,23.25
2022-08-05T17:46:31.794Z,23.42
2022-08-05T17:49:01.199Z,23.01
2022-08-05T17:51:40.437Z,23.25
2022-08-05T17:54:10.180Z,23.21
2022-08-05T17:56:40.869Z,23.02
2022-08-05T17:59:14.036Z,23.05
2022-08-05T18:01:50.658Z,23.05
2022-08-05T18:04:21.478Z,23.09
2022-08-05T18:07:00.464Z,23.08
2022-08-05T18:09:59.555Z,22.95
2022-08-05T18:12:24.041Z,23.05
2022-08-05T18:14:53.854Z,22.97
2022-08-05T18:17:59.100Z,22.88
2022-08-05T18:20:15.174Z,22.81
2022-08-05T18:22:53.759Z,22.81
2022-08-05T18:25:25.115Z,22.77
2022-08-05T18:27:55.971Z,22.54
2022-08-05T18:30:26.615Z,22.48
2022-08-05T18:36:00.067Z,22.29
2022-08-05T18:38:25.949Z,21.93
2022-08-05T18:41:56.031Z,21.86
2022-08-05T18:43:48.753Z,21.79
2022-08-05T18:46:19.811Z,21.78
2022-08-05T18:48:53.479Z,21.59
2022-08-05T18:52:06.302Z,21.65
2022-08-05T18:54:31.223Z,21.58
2022-08-05T18:57:01.689Z,21.56
2022-08-05T18:59:43.268Z,21.53
2022-08-05T19:02:27.811Z,21.41
2022-08-05T19:05:02.114Z,21.38
2022-08-05T19:07:50.706Z,21.18
2022-08-05T19:10:28.001Z,21.08
2022-08-05T19:12:58.260Z,21.01
2022-08-05T19:15:59.192Z,20.97
2022-08-05T19:18:22.398Z,20.93
2022-08-05T19:20:53.325Z,20.93
2022-08-05T19:24:05.951Z,20.93
2022-08-05T19:26:12.732Z,20.85
2022-08-05T19:28:43.340Z,20.75
2022-08-05T19:31:17.950Z,20.67
2022-08-05T19:33:56.305Z,20.72
2022-08-05T19:36:27.167Z,20.65
2022-08-05T19:39:00.960Z,20.60
2022-08-05T19:41:58.184Z,20.58
2022-08-05T19:44:20.908Z,20.57
2022-08-05T19:46:51.716Z,20.53
2022-08-05T19:49:21.156Z,20.48
2022-08-05T19:52:08.711Z,20.45
2022-08-05T19:54:39.890Z,20.44
2022-08-05T19:57:11.575Z,20.38
2022-08-05T19:59:56.536Z,20.05
2022-08-05T20:02:33.792Z,20.36
2022-08-05T20:05:09.648Z,20.26
2022-08-05T20:07:47.183Z,20.21
2022-08-05T20:10:22.379Z,20.18
2022-08-05T20:12:55.177Z,20.14
2022-08-05T20:15:51.838Z,20.05
2022-08-05T20:18:33.583Z,20.05
2022-08-05T20:21:10.840Z,19.99
2022-08-05T20:23:51.221Z,19.77
2022-08-05T20:26:25.378Z,19.97
2022-08-05T20:29:00.765Z,19.94
2022-08-05T20:31:42.981Z,19.91
2022-08-05T20:34:21.632Z,19.89
2022-08-05T20:36:52.992Z,19.87
2022-08-05T20:39:25.858Z,19.71
2022-08-05T20:42:11.636Z,19.66
2022-08-05T20:44:43.995Z,19.71
2022-08-05T20:47:13.593Z,19.70
2022-08-05T20:49:46.118Z,19.47
2022-08-05T20:52:21.010Z,19.62
2022-08-05T20:55:54.270Z,19.56
2022-08-05T20:57:43.925Z,19.55
2022-08-05T21:00:36.344Z,19.45
2022-08-05T21:03:08.100Z,19.34
2022-08-05T21:05:53.552Z,19.31
2022-08-05T21:08:41.565Z,19.23
2022-08-05T21:11:12.664Z,18.96
2022-08-05T21:13:47.513Z,19.15
2022-08-05T21:16:29.832Z,19.08
2022-08-05T21:19:01.571Z,19.05
2022-08-05T21:21:39.606Z,19.08
2022-08-05T21:24:15.587Z,19.02
2022-08-05T21:26:57.949Z,19.10
2022-08-05T21:29:32.163Z,19.09
2022-08-05T21:32:03.652Z,19.10
2022-08-05T21:34:35.671Z,19.06
2022-08-05T21:37:08.282Z,18.98
2022-08-05T21:39:40.382Z,18.77
2022-08-05T21:42:30.486Z,18.79
2022-08-05T21:45:00.017Z,18.68
2022-08-05T21:47:55.753Z,18.76
2022-08-05T21:50:19.743Z,18.69
2022-08-05T21:52:59.068Z,18.72
2022-08-05T21:56:01.135Z,18.62
2022-08-05T21:58:30.895Z,18.62
2022-08-05T22:01:02.381Z,18.58
2022-08-05T22:03:48.825Z,18.49
2022-08-05T22:06:37.007Z,18.45
2022-08-05T22:09:14.589Z,18.48
2022-08-05T22:11:46.881Z,18.49
2022-08-05T22:14:35.311Z,18.28
2022-08-05T22:17:07.665Z,18.37
2022-08-05T22:20:00.131Z,18.24
2022-08-05T22:22:29.438Z,18.27
2022-08-05T22:25:27.240Z,18.31
2022-08-05T22:28:09.658Z,18.28
2022-08-05T22:30:56.725Z,18.23
2022-08-05T22:33:57.490Z,18.13
2022-08-05T22:36:19.285Z,18.04
2022-08-05T22:38:54.246Z,17.93
2022-08-05T22:42:04.144Z,17.82
2022-08-05T22:44:15.290Z,17.97
2022-08-05T22:46:51.787Z,17.94
2022-08-05T22:50:17.177Z,17.85
2022-08-05T22:52:15.470Z,17.83
2022-08-05T22:55:01.865Z,17.79
2022-08-05T22:57:36.526Z,17.73
2022-08-05T23:00:10.991Z,17.63
2022-08-05T23:02:48.229Z,17.68
2022-08-05T23:05:18.466Z,17.58
2022-08-05T23:07:50.385Z,17.58
2022-08-05T23:10:23.494Z,17.53
2022-08-05T23:12:56.007Z,17.53
2022-08-05T23:15:27.166Z,17.26
2022-08-05T23:18:03.520Z,17.45
2022-08-05T23:20:37.275Z,17.31
2022-08-05T23:23:09.045Z,17.33
2022-08-05T23:25:53.155Z,17.31
2022-08-05T23:28:28.830Z,17.19
2022-08-05T23:31:15.704Z,17.11
2022-08-05T23:34:03.735Z,17.03
2022-08-05T23:36:39.720Z,17.14
2022-08-05T23:39:32.435Z,16.97
2022-08-05T23:42:10.915Z,17.02
2022-08-05T23:44:45.353Z,17.05
2022-08-05T23:47:24.865Z,16.98
2022-08-05T23:49:55.606Z,16.94
2022-08-05T23:52:30.580Z,16.94
2022-08-05T23:55:02.077Z,16.96
2022-08-05T23:57:35.202Z,16.96
